Time;durP1;ratioP1;P1;durP2;ratioP2;P2;SDS_P1;SDS_P2;PMS_P1;PMS_P2;Temp;Humidity;BMP_temperature;BMP_pressure;BME280_temperature;BME280_humidity;BME280_pressure;Samples;Min_cycle;Max_cycle;Signal;HPM_P1;HPM_P2
2022/06/25 00:00:29;;;;;;;;;;;;;;;;;;5053125;28;1914;-72
2022/06/25 00:02:55;;;;;;;;;;;;;;;;;;5052421;28;1299;-71
2022/06/25 00:05:32;;;;;;;;;;;;;;;;;;5053190;28;1059;-72
2022/06/25 00:07:59;;;;;;;;;;;;;;;;;;5050560;28;1343;-73
2022/06/25 00:10:26;;;;;;;;;;;;;;;;;;5052357;28;1064;-72
2022/06/25 00:12:51;;;;;;;;;;;;;;;;;;5034518;28;1416;-72
2022/06/25 00:15:17;;;;;;;;;;;;;;;;;;5052382;28;1103;-72
2022/06/25 00:17:43;;;;;;;;;;;;;;;;;;5051511;28;813;-72
2022/06/25 00:20:10;;;;;;;;;;;;;;;;;;5050852;28;1918;-72
2022/06/25 00:22:37;;;;;;;;;;;;;;;;;;5034617;28;1401;-71
2022/06/25 00:25:05;;;;;;;;;;;;;;;;;;5052159;28;904;-71
2022/06/25 00:27:31;;;;;;;;;;;;;;;;;;5033918;28;1183;-72
2022/06/25 00:29:57;;;;;;;;;;;;;;;;;;5050781;28;1123;-72
2022/06/25 00:32:23;;;;;;;;;;;;;;;;;;5050798;28;1317;-71
2022/06/25 00:34:49;;;;;;;;;;;;;;;;;;5052287;28;988;-72
2022/06/25 00:37:16;;;;;;;;;;;;;;;;;;5051479;28;1056;-71
2022/06/25 00:39:43;;;;;;;;;;;;;;;;;;5051910;28;1981;-71
2022/06/25 00:42:11;;;;;;;;;;;;;;;;;;5033864;28;1306;-71
2022/06/25 00:44:37;;;;;;;;;;;;;;;;;;5050795;28;1251;-71
2022/06/25 00:47:04;;;;;;;;;;;;;;;;;;5051270;28;1003;-71
2022/06/25 00:49:30;;;;;;;;;;;;;;;;;;5051940;28;993;-71
2022/06/25 00:51:56;;;;;;;;;;;;;;;;;;5051770;28;1309;-71
2022/06/25 00:54:23;;;;;;;;;;;;;;;;;;5052011;28;854;-71
2022/06/25 00:56:49;;;;;;;;;;;;;;;;;;5049861;28;1122;-71
2022/06/25 00:59:17;;;;;;;;;;;;;;;;;;5051580;28;1918;-72
2022/06/25 01:01:44;;;;;;;;;;;;;;;;;;5033724;28;1342;-71
2022/06/25 01:04:10;;;;;;;;;;;;;;;;;;5050318;28;1103;-70
2022/06/25 01:06:37;;;;;;;;;;;;;;;;;;5050934;28;1072;-71
2022/06/25 01:09:03;;;;;;;;;;;;;;;;;;5050812;28;1499;-72
2022/06/25 01:11:29;;;;;;;;;;;;;;;;;;5051353;28;1312;-71
2022/06/25 01:13:55;;;;;;;;;;;;;;;;;;5050214;28;1377;-71
2022/06/25 01:16:23;;;;;;;;;;;;;;;;;;5032974;28;1319;-72
2022/06/25 01:18:52;;;;;;;;;;;;;;;;;;5033507;28;1926;-71
2022/06/25 01:21:18;;;;;;;;;;;;;;;;;;5050155;28;1436;-72
2022/06/25 01:23:46;;;;;;;;;;;;;;;;;;5051431;28;793;-71
2022/06/25 01:26:12;;;;;;;;;;;;;;;;;;5048915;28;1211;-72
2022/06/25 01:28:38;;;;;;;;;;;;;;;;;;5051354;28;1122;-71
2022/06/25 01:31:05;;;;;;;;;;;;;;;;;;5050142;28;1309;-71
2022/06/25 01:33:31;;;;;;;;;;;;;;;;;;5049952;28;1166;-72
2022/06/25 01:35:57;;;;;;;;;;;;;;;;;;5049547;28;1155;-71
2022/06/25 01:38:26;;;;;;;;;;;;;;;;;;5050329;28;861;-72
2022/06/25 01:40:54;;;;;;;;;;;;;;;;;;5032628;28;1988;-72
2022/06/25 01:43:20;;;;;;;;;;;;;;;;;;5032844;28;1020;-71
2022/06/25 01:45:47;;;;;;;;;;;;;;;;;;5049319;28;1167;-71
2022/06/25 01:48:13;;;;;;;;;;;;;;;;;;5032197;28;1147;-72
2022/06/25 01:50:39;;;;;;;;;;;;;;;;;;5049643;28;1128;-71
2022/06/25 01:53:06;;;;;;;;;;;;;;;;;;5049216;28;1473;-72
2022/06/25 01:55:32;;;;;;;;;;;;;;;;;;5032459;28;1134;-72
2022/06/25 01:58:00;;;;;;;;;;;;;;;;;;5032190;28;1831;-71
2022/06/25 02:00:27;;;;;;;;;;;;;;;;;;5032596;28;1993;-71
2022/06/25 02:03:01;;;;;;;;;;;;;;;;;;5032552;28;1446;-71
2022/06/25 02:08:15;;;;;;;;;;;;;;;;;;5031807;28;1187;-71
2022/06/25 02:10:45;;;;;;;;;;;;;;;;;;5050228;28;1332;-71
2022/06/25 02:13:12;;;;;;;;;;;;;;;;;;5032365;28;1250;-72
2022/06/25 02:15:40;;;;;;;;;;;;;;;;;;5032284;28;1207;-71
2022/06/25 02:18:06;;;;;;;;;;;;;;;;;;5031525;28;1388;-71
2022/06/25 02:20:33;;;;;;;;;;;;;;;;;;5048492;28;1910;-71
2022/06/25 02:22:59;;;;;;;;;;;;;;;;;;5050056;28;1312;-71
2022/06/25 02:25:25;;;;;;;;;;;;;;;;;;5049836;28;1068;-71
2022/06/25 02:27:51;;;;;;;;;;;;;;;;;;5031679;28;1354;-71
2022/06/25 02:30:19;;;;;;;;;;;;;;;;;;5049015;28;1158;-71
2022/06/25 02:32:45;;;;;;;;;;;;;;;;;;5046893;28;2288;-71
2022/06/25 02:35:11;;;;;;;;;;;;;;;;;;5045511;28;1175;-71
2022/06/25 02:37:38;;;;;;;;;;;;;;;;;;5047835;28;1199;-71
2022/06/25 02:40:06;;;;;;;;;;;;;;;;;;5032322;28;1910;-72
2022/06/25 02:42:35;;;;;;;;;;;;;;;;;;5035017;28;1408;-72
2022/06/25 02:45:03;;;;;;;;;;;;;;;;;;5036268;28;1312;-71
2022/06/25 02:47:30;;;;;;;;;;;;;;;;;;5035356;28;1277;-71
2022/06/25 02:50:08;;;;;;;;;;;;;;;;;;5036243;28;1428;-71
2022/06/25 02:52:36;;;;;;;;;;;;;;;;;;5035837;28;1336;-72
2022/06/25 02:55:02;;;;;;;;;;;;;;;;;;5035849;28;1172;-72
2022/06/25 03:00:21;;;;;;;;;;;;;;;;;;5036031;28;1981;-71
2022/06/25 03:02:50;;;;;;;;;;;;;;;;;;5035794;28;1443;-71
2022/06/25 03:05:16;;;;;;;;;;;;;;;;;;5053285;28;708;-72
2022/06/25 03:07:43;;;;;;;;;;;;;;;;;;5035288;28;1303;-71
2022/06/25 03:10:09;;;;;;;;;;;;;;;;;;5053600;28;858;-71
2022/06/25 03:12:35;;;;;;;;;;;;;;;;;;5035255;28;1495;-72
2022/06/25 03:15:16;;;;;;;;;;;;;;;;;;5031782;28;1204;-72
2022/06/25 03:17:42;;;;;;;;;;;;;;;;;;5031787;28;1187;-71
2022/06/25 03:20:29;;;;;;;;;;;;;;;;;;5033909;28;1963;-71
2022/06/25 03:22:58;;;;;;;;;;;;;;;;;;5015760;28;1339;-72
2022/06/25 03:25:24;;;;;;;;;;;;;;;;;;5031864;28;1156;-71
2022/06/25 03:27:50;;;;;;;;;;;;;;;;;;5031444;28;1277;-72
2022/06/25 03:30:17;;;;;;;;;;;;;;;;;;5032102;28;1355;-72
2022/06/25 03:32:45;;;;;;;;;;;;;;;;;;5031450;28;1302;-72
2022/06/25 03:35:25;;;;;;;;;;;;;;;;;;5031701;28;1304;-72
2022/06/25 03:38:11;;;;;;;;;;;;;;;;;;5014700;28;1344;-72
2022/06/25 03:40:38;;;;;;;;;;;;;;;;;;5031781;28;1918;-72
2022/06/25 03:43:07;;;;;;;;;;;;;;;;;;5031827;28;1352;-72
2022/06/25 03:45:38;;;;;;;;;;;;;;;;;;5031343;28;1689;-72
2022/06/25 03:48:05;;;;;;;;;;;;;;;;;;5014421;28;1436;-72
2022/06/25 03:50:35;;;;;;;;;;;;;;;;;;5031601;28;1208;-72
2022/06/25 03:53:02;;;;;;;;;;;;;;;;;;5030062;28;1525;-72
2022/06/25 03:55:29;;;;;;;;;;;;;;;;;;5031500;28;910;-72
2022/06/25 03:57:56;;;;;;;;;;;;;;;;;;5030735;28;1262;-72
2022/06/25 04:00:25;;;;;;;;;;;;;;;;;;5031321;28;1973;-72
2022/06/25 04:02:56;;;;;;;;;;;;;;;;;;5032727;28;1706;-72
2022/06/25 04:05:29;;;;;;;;;;;;;;;;;;5029345;28;1739;-75
2022/06/25 04:08:03;;;;;;;;;;;;;;;;;;4973289;28;1462;-74
2022/06/25 04:10:31;;;;;;;;;;;;;;;;;;4984698;28;1207;-71
2022/06/25 04:12:58;;;;;;;;;;;;;;;;;;4981507;28;1359;-72
2022/06/25 04:15:24;;;;;;;;;;;;;;;;;;4986846;28;716;-73
2022/06/25 04:17:51;;;;;;;;;;;;;;;;;;4961268;28;1047;-74
2022/06/25 04:20:17;;;;;;;;;;;;;;;;;;4983052;28;1930;-73
2022/06/25 04:22:44;;;;;;;;;;;;;;;;;;4999107;28;1605;-74
2022/06/25 04:25:10;;;;;;;;;;;;;;;;;;4986761;28;993;-73
2022/06/25 04:30:24;;;;;;;;;;;;;;;;;;4965732;28;1397;-73
2022/06/25 04:32:53;;;;;;;;;;;;;;;;;;5032515;28;2476;-72
2022/06/25 04:35:32;;;;;;;;;;;;;;;;;;5049285;28;1469;-72
2022/06/25 04:38:04;;;;;;;;;;;;;;;;;;5043134;28;1416;-71
2022/06/25 04:40:30;;;;;;;;;;;;;;;;;;5034149;28;1922;-71
2022/06/25 04:42:58;;;;;;;;;;;;;;;;;;5047393;28;1422;-72
2022/06/25 04:45:24;;;;;;;;;;;;;;;;;;5040714;28;1430;-71
2022/06/25 04:48:10;;;;;;;;;;;;;;;;;;5032116;28;1355;-71
2022/06/25 04:50:55;;;;;;;;;;;;;;;;;;5051912;28;1293;-71
2022/06/25 04:53:22;;;;;;;;;;;;;;;;;;5034119;28;1309;-72
2022/06/25 04:55:48;;;;;;;;;;;;;;;;;;5052684;28;758;-70
2022/06/25 04:58:15;;;;;;;;;;;;;;;;;;5033144;28;1191;-69
2022/06/25 05:01:04;;;;;;;;;;;;;;;;;;5051152;28;1910;-71
2022/06/25 05:03:31;;;;;;;;;;;;;;;;;;5033338;28;1279;-70
2022/06/25 05:06:09;;;;;;;;;;;;;;;;;;5032425;28;1195;-70
2022/06/25 05:08:35;;;;;;;;;;;;;;;;;;5033781;28;1218;-70
2022/06/25 05:11:01;;;;;;;;;;;;;;;;;;5033351;28;1478;-71
2022/06/25 05:13:29;;;;;;;;;;;;;;;;;;5033143;28;1523;-70
2022/06/25 05:15:56;;;;;;;;;;;;;;;;;;5033111;28;1491;-71
2022/06/25 05:18:22;;;;;;;;;;;;;;;;;;5032698;28;1377;-70
2022/06/25 05:20:48;;;;;;;;;;;;;;;;;;5033117;28;1906;-71
2022/06/25 05:23:15;;;;;;;;;;;;;;;;;;5033378;28;1349;-71
2022/06/25 05:25:41;;;;;;;;;;;;;;;;;;5033514;28;1393;-71
2022/06/25 05:28:07;;;;;;;;;;;;;;;;;;5032386;28;1184;-71
2022/06/25 05:30:35;;;;;;;;;;;;;;;;;;5031443;28;1431;-70
2022/06/25 05:33:02;;;;;;;;;;;;;;;;;;5022945;28;1454;-70
2022/06/25 05:35:28;;;;;;;;;;;;;;;;;;5050848;28;1154;-70
2022/06/25 05:37:54;;;;;;;;;;;;;;;;;;5029109;28;1469;-70
2022/06/25 05:40:21;;;;;;;;;;;;;;;;;;5032895;28;1918;-70
2022/06/25 05:42:47;;;;;;;;;;;;;;;;;;5050249;28;1468;-69
2022/06/25 05:45:13;;;;;;;;;;;;;;;;;;5041652;28;1398;-70
2022/06/25 05:47:41;;;;;;;;;;;;;;;;;;5031371;28;1391;-70
2022/06/25 05:50:09;;;;;;;;;;;;;;;;;;5050447;28;1170;-70
2022/06/25 05:52:35;;;;;;;;;;;;;;;;;;5049404;28;1393;-70
2022/06/25 05:55:01;;;;;;;;;;;;;;;;;;5048836;28;1416;-70
2022/06/25 05:57:28;;;;;;;;;;;;;;;;;;5048333;28;1523;-70
2022/06/25 05:59:54;;;;;;;;;;;;;;;;;;5049391;28;1399;-71
2022/06/25 06:02:20;;;;;;;;;;;;;;;;;;5031379;28;1914;-71
2022/06/25 06:04:48;;;;;;;;;;;;;;;;;;5051348;28;1548;-70
2022/06/25 06:07:14;;;;;;;;;;;;;;;;;;5032475;28;1141;-71
2022/06/25 06:09:40;;;;;;;;;;;;;;;;;;5050445;28;1111;-71
2022/06/25 06:12:06;;;;;;;;;;;;;;;;;;5049265;28;1385;-70
2022/06/25 06:14:32;;;;;;;;;;;;;;;;;;5049959;28;1166;-71
2022/06/25 06:16:59;;;;;;;;;;;;;;;;;;5048762;28;1155;-70
2022/06/25 06:19:25;;;;;;;;;;;;;;;;;;5050350;28;1126;-71
2022/06/25 06:21:52;;;;;;;;;;;;;;;;;;5031929;28;1918;-70
2022/06/25 06:24:18;;;;;;;;;;;;;;;;;;5050157;28;778;-71
2022/06/25 06:26:44;;;;;;;;;;;;;;;;;;5031711;28;1274;-69
2022/06/25 06:29:11;;;;;;;;;;;;;;;;;;5049793;28;1067;-71
2022/06/25 06:31:37;;;;;;;;;;;;;;;;;;5048115;28;1405;-70
2022/06/25 06:34:03;;;;;;;;;;;;;;;;;;5048769;28;1454;-70
2022/06/25 06:36:29;;;;;;;;;;;;;;;;;;5047936;28;1299;-70
2022/06/25 06:38:57;;;;;;;;;;;;;;;;;;5030026;28;1332;-69
2022/06/25 06:41:24;;;;;;;;;;;;;;;;;;5047876;28;1997;-69
2022/06/25 06:43:50;;;;;;;;;;;;;;;;;;5045287;28;1393;-69
2022/06/25 06:46:16;;;;;;;;;;;;;;;;;;5049111;28;1142;-70
2022/06/25 06:48:43;;;;;;;;;;;;;;;;;;5049928;28;1115;-70
2022/06/25 06:51:09;;;;;;;;;;;;;;;;;;5047969;28;1524;-70
2022/06/25 06:53:35;;;;;;;;;;;;;;;;;;5031012;28;1183;-69
2022/06/25 06:56:03;;;;;;;;;;;;;;;;;;5049851;28;1218;-70
2022/06/25 06:58:29;;;;;;;;;;;;;;;;;;5049471;28;940;-69
2022/06/25 07:00:55;;;;;;;;;;;;;;;;;;5049760;28;1910;-71
2022/06/25 07:03:22;;;;;;;;;;;;;;;;;;5049994;28;964;-71
2022/06/25 07:05:48;;;;;;;;;;;;;;;;;;5049765;28;1063;-71
2022/06/25 07:08:20;;;;;;;;;;;;;;;;;;5047966;28;1430;-71
2022/06/25 07:10:47;;;;;;;;;;;;;;;;;;5049702;28;1315;-71
2022/06/25 07:13:14;;;;;;;;;;;;;;;;;;5049826;28;1467;-71
2022/06/25 07:15:40;;;;;;;;;;;;;;;;;;5050017;28;850;-71
2022/06/25 07:18:07;;;;;;;;;;;;;;;;;;5049170;28;778;-72
2022/06/25 07:20:33;;;;;;;;;;;;;;;;;;5031694;28;1918;-71
2022/06/25 07:23:00;;;;;;;;;;;;;;;;;;5046244;28;1387;-71
2022/06/25 07:25:26;;;;;;;;;;;;;;;;;;5031911;28;1202;-71
2022/06/25 07:27:52;;;;;;;;;;;;;;;;;;5029734;28;1498;-72
2022/06/25 07:30:20;;;;;;;;;;;;;;;;;;5053206;28;1146;-71
2022/06/25 07:32:46;;;;;;;;;;;;;;;;;;5042092;28;1509;-71
2022/06/25 07:35:12;;;;;;;;;;;;;;;;;;5047487;28;1384;-71
2022/06/25 07:37:38;;;;;;;;;;;;;;;;;;5051838;28;1414;-69
2022/06/25 07:40:05;;;;;;;;;;;;;;;;;;5052431;28;1166;-70
2022/06/25 07:42:31;;;;;;;;;;;;;;;;;;5051689;28;2041;-71
2022/06/25 07:44:58;;;;;;;;;;;;;;;;;;5052747;28;1158;-71
2022/06/25 07:47:25;;;;;;;;;;;;;;;;;;5034518;28;1219;-71
2022/06/25 07:52:36;;;;;;;;;;;;;;;;;;5052213;28;1442;-71
2022/06/25 07:55:03;;;;;;;;;;;;;;;;;;5052609;28;1080;-71
2022/06/25 07:57:29;;;;;;;;;;;;;;;;;;5034401;28;1556;-71
2022/06/25 07:59:55;;;;;;;;;;;;;;;;;;5052441;28;679;-70
2022/06/25 08:02:21;;;;;;;;;;;;;;;;;;5034562;28;1982;-71
2022/06/25 08:04:49;;;;;;;;;;;;;;;;;;5052894;28;862;-71
2022/06/25 08:07:15;;;;;;;;;;;;;;;;;;5051974;28;1433;-71
2022/06/25 08:09:41;;;;;;;;;;;;;;;;;;5034789;28;2325;-72
2022/06/25 08:12:08;;;;;;;;;;;;;;;;;;5052321;28;1309;-71
2022/06/25 08:14:34;;;;;;;;;;;;;;;;;;5052694;28;874;-70
2022/06/25 08:17:00;;;;;;;;;;;;;;;;;;5051638;28;1118;-70
2022/06/25 08:19:26;;;;;;;;;;;;;;;;;;5052613;28;1111;-71
2022/06/25 08:21:54;;;;;;;;;;;;;;;;;;5052476;28;1910;-70
2022/06/25 08:24:20;;;;;;;;;;;;;;;;;;5034622;28;1472;-69
2022/06/25 08:26:46;;;;;;;;;;;;;;;;;;5033898;28;1160;-70
2022/06/25 08:29:12;;;;;;;;;;;;;;;;;;5034437;28;1125;-70
2022/06/25 08:31:39;;;;;;;;;;;;;;;;;;5052129;28;1342;-70
2022/06/25 08:34:05;;;;;;;;;;;;;;;;;;5034319;28;1160;-73
2022/06/25 08:36:31;;;;;;;;;;;;;;;;;;5046960;28;1943;-69
2022/06/25 08:38:58;;;;;;;;;;;;;;;;;;5044762;28;1424;-72
2022/06/25 08:41:25;;;;;;;;;;;;;;;;;;5051505;28;1925;-71
2022/06/25 08:43:51;;;;;;;;;;;;;;;;;;5052102;28;770;-72
2022/06/25 08:46:18;;;;;;;;;;;;;;;;;;5051446;28;945;-71
2022/06/25 08:48:44;;;;;;;;;;;;;;;;;;5052447;28;778;-73
2022/06/25 08:51:10;;;;;;;;;;;;;;;;;;5051254;28;1349;-70
2022/06/25 08:53:36;;;;;;;;;;;;;;;;;;5052176;28;1413;-70
2022/06/25 08:56:04;;;;;;;;;;;;;;;;;;5052037;28;882;-70
2022/06/25 08:58:30;;;;;;;;;;;;;;;;;;5033941;28;1252;-70
2022/06/25 09:00:57;;;;;;;;;;;;;;;;;;5050747;28;1384;-70
2022/06/25 09:03:23;;;;;;;;;;;;;;;;;;5033488;28;1335;-70
2022/06/25 09:05:50;;;;;;;;;;;;;;;;;;5051500;28;1131;-70
2022/06/25 09:08:16;;;;;;;;;;;;;;;;;;5049112;28;948;-70
2022/06/25 09:10:44;;;;;;;;;;;;;;;;;;5051401;28;1059;-70
2022/06/25 09:13:12;;;;;;;;;;;;;;;;;;5032907;28;1456;-70
2022/06/25 09:15:40;;;;;;;;;;;;;;;;;;5051323;28;1055;-70
2022/06/25 09:18:06;;;;;;;;;;;;;;;;;;5032191;28;1325;-70
2022/06/25 09:20:32;;;;;;;;;;;;;;;;;;5050518;28;1582;-71
2022/06/25 09:23:00;;;;;;;;;;;;;;;;;;5050489;28;1914;-71
2022/06/25 09:25:27;;;;;;;;;;;;;;;;;;5051197;28;1128;-70
2022/06/25 09:27:53;;;;;;;;;;;;;;;;;;5050263;28;933;-71
2022/06/25 09:30:22;;;;;;;;;;;;;;;;;;5051000;28;1165;-70
2022/06/25 09:32:48;;;;;;;;;;;;;;;;;;5050908;28;1699;-71
2022/06/25 09:35:15;;;;;;;;;;;;;;;;;;5050735;28;782;-70
2022/06/25 09:37:42;;;;;;;;;;;;;;;;;;5049971;28;1055;-70
2022/06/25 09:40:10;;;;;;;;;;;;;;;;;;5050593;28;1091;-70
2022/06/25 09:42:37;;;;;;;;;;;;;;;;;;5050317;28;1914;-71
2022/06/25 09:45:08;;;;;;;;;;;;;;;;;;5050662;28;819;-71
2022/06/25 09:47:36;;;;;;;;;;;;;;;;;;5049808;28;1047;-70
2022/06/25 09:50:03;;;;;;;;;;;;;;;;;;5050537;28;1040;-70
2022/06/25 09:52:29;;;;;;;;;;;;;;;;;;5049496;28;1487;-70
2022/06/25 09:54:55;;;;;;;;;;;;;;;;;;5050499;28;935;-71
2022/06/25 09:57:22;;;;;;;;;;;;;;;;;;5049434;28;976;-71
2022/06/25 09:59:49;;;;;;;;;;;;;;;;;;5032704;28;1207;-71
2022/06/25 10:02:15;;;;;;;;;;;;;;;;;;5049507;28;1919;-70
2022/06/25 10:04:42;;;;;;;;;;;;;;;;;;5050673;28;854;-71
2022/06/25 10:07:09;;;;;;;;;;;;;;;;;;5031951;28;1331;-73
2022/06/25 10:09:35;;;;;;;;;;;;;;;;;;5047854;28;1418;-70
2022/06/25 10:12:01;;;;;;;;;;;;;;;;;;5049583;28;1329;-71
2022/06/25 10:14:27;;;;;;;;;;;;;;;;;;5049534;28;1303;-71
2022/06/25 10:16:53;;;;;;;;;;;;;;;;;;5040954;28;1213;-71
2022/06/25 10:19:20;;;;;;;;;;;;;;;;;;5064731;28;1433;-71
2022/06/25 10:21:47;;;;;;;;;;;;;;;;;;5049172;28;1963;-71
2022/06/25 10:24:15;;;;;;;;;;;;;;;;;;5041899;28;1241;-71
2022/06/25 10:26:41;;;;;;;;;;;;;;;;;;5049654;28;989;-71
2022/06/25 10:29:22;;;;;;;;;;;;;;;;;;5049778;28;1079;-70
2022/06/25 10:31:48;;;;;;;;;;;;;;;;;;5032007;28;1402;-71
2022/06/25 10:34:15;;;;;;;;;;;;;;;;;;5031189;28;1504;-71
2022/06/25 10:36:42;;;;;;;;;;;;;;;;;;5048166;28;1162;-71
2022/06/25 10:39:27;;;;;;;;;;;;;;;;;;5031748;28;1155;-70
2022/06/25 10:44:53;;;;;;;;;;;;;;;;;;5031926;28;1125;-70
2022/06/25 10:47:19;;;;;;;;;;;;;;;;;;5048677;28;1326;-71
2022/06/25 10:49:45;;;;;;;;;;;;;;;;;;5049298;28;1311;-70
2022/06/25 10:52:16;;;;;;;;;;;;;;;;;;5049528;28;1347;-71
2022/06/25 10:54:42;;;;;;;;;;;;;;;;;;5031518;28;1406;-71
2022/06/25 10:57:08;;;;;;;;;;;;;;;;;;5048149;28;2146;-70
2022/06/25 10:59:46;;;;;;;;;;;;;;;;;;5049922;28;1100;-71
2022/06/25 11:02:14;;;;;;;;;;;;;;;;;;5050110;28;1979;-71
2022/06/25 11:04:44;;;;;;;;;;;;;;;;;;5052293;28;1388;-71
2022/06/25 11:07:11;;;;;;;;;;;;;;;;;;5052654;28;1229;-71
2022/06/25 11:09:38;;;;;;;;;;;;;;;;;;5053188;28;1017;-71
2022/06/25 11:12:05;;;;;;;;;;;;;;;;;;5052276;28;1506;-72
2022/06/25 11:14:32;;;;;;;;;;;;;;;;;;5027303;28;1641;-71
2022/06/25 11:17:01;;;;;;;;;;;;;;;;;;5051982;28;1461;-71
2022/06/25 11:19:29;;;;;;;;;;;;;;;;;;5051610;28;1518;-71
2022/06/25 11:21:55;;;;;;;;;;;;;;;;;;5051472;28;1914;-71
2022/06/25 11:24:22;;;;;;;;;;;;;;;;;;5050886;28;1529;-71
2022/06/25 11:29:34;;;;;;;;;;;;;;;;;;5050668;28;1524;-71
2022/06/25 11:32:00;;;;;;;;;;;;;;;;;;5045543;28;1429;-71
2022/06/25 11:34:26;;;;;;;;;;;;;;;;;;5052343;28;1541;-71
2022/06/25 11:37:01;;;;;;;;;;;;;;;;;;5051191;28;1274;-71
2022/06/25 11:39:28;;;;;;;;;;;;;;;;;;5051419;28;1180;-71
2022/06/25 11:41:54;;;;;;;;;;;;;;;;;;5050333;28;1925;-70
2022/06/25 11:44:20;;;;;;;;;;;;;;;;;;5032711;28;1403;-70
2022/06/25 11:46:47;;;;;;;;;;;;;;;;;;5049762;28;1797;-70
2022/06/25 11:49:14;;;;;;;;;;;;;;;;;;5031122;28;1408;-71
2022/06/25 11:51:43;;;;;;;;;;;;;;;;;;4951633;28;1349;-72
2022/06/25 11:54:11;;;;;;;;;;;;;;;;;;4979858;28;1164;-71
2022/06/25 11:56:38;;;;;;;;;;;;;;;;;;4987615;28;1043;-71
2022/06/25 11:59:04;;;;;;;;;;;;;;;;;;4989038;28;1048;-73
2022/06/25 12:01:32;;;;;;;;;;;;;;;;;;4981694;28;1333;-73
2022/06/25 12:03:58;;;;;;;;;;;;;;;;;;4992072;28;1938;-74
2022/06/25 12:06:24;;;;;;;;;;;;;;;;;;5048730;28;1471;-74
2022/06/25 12:08:51;;;;;;;;;;;;;;;;;;5033107;28;1778;-74
2022/06/25 12:11:19;;;;;;;;;;;;;;;;;;5041904;28;1353;-74
2022/06/25 12:13:45;;;;;;;;;;;;;;;;;;5050166;28;1015;-75
2022/06/25 12:16:11;;;;;;;;;;;;;;;;;;5051654;28;1060;-74
2022/06/25 12:18:38;;;;;;;;;;;;;;;;;;5050385;28;1283;-74
2022/06/25 12:21:05;;;;;;;;;;;;;;;;;;5052312;28;1346;-74
2022/06/25 12:23:31;;;;;;;;;;;;;;;;;;5052464;28;1973;-74
2022/06/25 12:25:58;;;;;;;;;;;;;;;;;;5048562;28;1430;-74
2022/06/25 12:28:39;;;;;;;;;;;;;;;;;;5051594;28;1043;-75
2022/06/25 12:31:08;;;;;;;;;;;;;;;;;;5051852;28;1312;-75
2022/06/25 12:33:34;;;;;;;;;;;;;;;;;;5051019;28;1257;-74
2022/06/25 12:36:00;;;;;;;;;;;;;;;;;;5051711;28;1158;-75
2022/06/25 12:38:26;;;;;;;;;;;;;;;;;;5051385;28;907;-75
2022/06/25 12:40:53;;;;;;;;;;;;;;;;;;5051979;28;1303;-73
2022/06/25 12:43:20;;;;;;;;;;;;;;;;;;5050579;28;1900;-74
2022/06/25 12:45:50;;;;;;;;;;;;;;;;;;5052049;28;778;-74
2022/06/25 12:48:25;;;;;;;;;;;;;;;;;;5049634;28;1296;-74
2022/06/25 12:50:51;;;;;;;;;;;;;;;;;;5052198;28;1355;-74
2022/06/25 12:53:17;;;;;;;;;;;;;;;;;;5050317;28;1300;-74
2022/06/25 12:55:45;;;;;;;;;;;;;;;;;;5052122;28;921;-74
2022/06/25 12:58:12;;;;;;;;;;;;;;;;;;5051210;28;806;-73
2022/06/25 13:00:39;;;;;;;;;;;;;;;;;;5067618;28;1133;-74
2022/06/25 13:03:06;;;;;;;;;;;;;;;;;;5050252;28;1995;-73
2022/06/25 13:05:33;;;;;;;;;;;;;;;;;;5051738;28;885;-74
2022/06/25 13:07:59;;;;;;;;;;;;;;;;;;5051160;28;1106;-73
2022/06/25 13:10:26;;;;;;;;;;;;;;;;;;5049998;28;1271;-73
2022/06/25 13:12:53;;;;;;;;;;;;;;;;;;5051197;28;1293;-74
2022/06/25 13:15:19;;;;;;;;;;;;;;;;;;5049941;28;1111;-73
2022/06/25 13:17:45;;;;;;;;;;;;;;;;;;5050622;28;1060;-73
2022/06/25 13:20:13;;;;;;;;;;;;;;;;;;5051602;28;945;-73
2022/06/25 13:22:40;;;;;;;;;;;;;;;;;;5051208;28;1918;-73
2022/06/25 13:25:09;;;;;;;;;;;;;;;;;;5050935;28;878;-73
2022/06/25 13:27:35;;;;;;;;;;;;;;;;;;5050389;28;909;-73
2022/06/25 13:30:01;;;;;;;;;;;;;;;;;;5049645;28;1311;-73
2022/06/25 13:32:27;;;;;;;;;;;;;;;;;;5048774;28;1471;-73
2022/06/25 13:34:54;;;;;;;;;;;;;;;;;;5050888;28;1559;-75
2022/06/25 13:37:22;;;;;;;;;;;;;;;;;;5049431;28;1056;-75
2022/06/25 13:39:48;;;;;;;;;;;;;;;;;;5047925;28;874;-75
2022/06/25 13:42:15;;;;;;;;;;;;;;;;;;4991949;28;1282;-72
2022/06/25 13:44:41;;;;;;;;;;;;;;;;;;4986281;28;1946;-72
2022/06/25 13:47:08;;;;;;;;;;;;;;;;;;4981163;28;1658;-73
2022/06/25 13:49:35;;;;;;;;;;;;;;;;;;4982317;28;1541;-72
2022/06/25 13:52:02;;;;;;;;;;;;;;;;;;4957058;28;1378;-73
2022/06/25 13:54:30;;;;;;;;;;;;;;;;;;4960592;28;1111;-71
2022/06/25 13:56:58;;;;;;;;;;;;;;;;;;4974666;28;1032;-72
2022/06/25 13:59:24;;;;;;;;;;;;;;;;;;4984942;28;1143;-71
2022/06/25 14:01:51;;;;;;;;;;;;;;;;;;4986236;28;1388;-72
2022/06/25 14:04:17;;;;;;;;;;;;;;;;;;4967195;28;1950;-72
2022/06/25 14:06:44;;;;;;;;;;;;;;;;;;4980655;28;916;-73
2022/06/25 14:09:11;;;;;;;;;;;;;;;;;;4970854;28;1001;-70
2022/06/25 14:11:39;;;;;;;;;;;;;;;;;;4970637;28;1282;-72
2022/06/25 14:14:05;;;;;;;;;;;;;;;;;;4975082;28;1021;-70
2022/06/25 14:16:32;;;;;;;;;;;;;;;;;;4955540;28;1135;-70
2022/06/25 14:18:59;;;;;;;;;;;;;;;;;;4975237;28;1655;-72
2022/06/25 14:21:26;;;;;;;;;;;;;;;;;;4978706;28;1344;-70
2022/06/25 14:23:52;;;;;;;;;;;;;;;;;;4978015;28;1993;-73
2022/06/25 14:26:19;;;;;;;;;;;;;;;;;;4962321;28;1338;-72
2022/06/25 14:28:47;;;;;;;;;;;;;;;;;;4950705;28;1572;-72
2022/06/25 14:31:13;;;;;;;;;;;;;;;;;;4977884;28;1357;-70
2022/06/25 14:33:39;;;;;;;;;;;;;;;;;;5019624;28;1394;-71
2022/06/25 14:44:19;;;;;;;;;;;;;;;;;;5047917;28;1989;-72
2022/06/25 14:46:46;;;;;;;;;;;;;;;;;;5031714;28;1862;-72
2022/06/25 14:49:12;;;;;;;;;;;;;;;;;;5053639;28;1307;-72
2022/06/25 14:51:38;;;;;;;;;;;;;;;;;;5053640;28;1344;-71
2022/06/25 14:54:04;;;;;;;;;;;;;;;;;;5048938;28;1466;-71
2022/06/25 14:56:31;;;;;;;;;;;;;;;;;;5050124;28;1492;-72
2022/06/25 14:58:57;;;;;;;;;;;;;;;;;;5035560;28;1242;-71
2022/06/25 15:01:24;;;;;;;;;;;;;;;;;;5053725;28;1324;-72
2022/06/25 15:03:51;;;;;;;;;;;;;;;;;;5053986;28;1977;-70
2022/06/25 15:06:17;;;;;;;;;;;;;;;;;;5046145;28;1537;-71
2022/06/25 15:08:43;;;;;;;;;;;;;;;;;;5050796;28;1500;-71
2022/06/25 15:11:09;;;;;;;;;;;;;;;;;;5026293;28;1356;-71
2022/06/25 15:13:36;;;;;;;;;;;;;;;;;;5053237;28;1319;-71
2022/06/25 15:16:02;;;;;;;;;;;;;;;;;;5049369;28;1347;-71
2022/06/25 15:18:30;;;;;;;;;;;;;;;;;;5035864;28;1150;-72
2022/06/25 15:20:56;;;;;;;;;;;;;;;;;;5034853;28;1507;-72
2022/06/25 15:23:24;;;;;;;;;;;;;;;;;;5052894;28;1977;-71
2022/06/25 15:25:50;;;;;;;;;;;;;;;;;;5029744;28;1246;-72
2022/06/25 15:28:16;;;;;;;;;;;;;;;;;;5050882;28;1503;-71
2022/06/25 15:30:42;;;;;;;;;;;;;;;;;;5035518;28;1247;-71
2022/06/25 15:33:08;;;;;;;;;;;;;;;;;;5033561;28;1552;-71
2022/06/25 15:35:36;;;;;;;;;;;;;;;;;;5046818;28;1580;-72
2022/06/25 15:38:06;;;;;;;;;;;;;;;;;;5050021;28;1382;-72
2022/06/25 15:40:32;;;;;;;;;;;;;;;;;;5034502;28;1355;-72
2022/06/25 15:42:59;;;;;;;;;;;;;;;;;;5051878;28;1424;-72
2022/06/25 15:45:25;;;;;;;;;;;;;;;;;;5039625;28;1914;-71
2022/06/25 15:47:51;;;;;;;;;;;;;;;;;;5049785;28;1433;-71
2022/06/25 15:50:17;;;;;;;;;;;;;;;;;;5050712;28;1433;-72
2022/06/25 15:52:45;;;;;;;;;;;;;;;;;;5052015;28;1412;-72
2022/06/25 15:55:11;;;;;;;;;;;;;;;;;;5052779;28;1172;-72
2022/06/25 15:57:37;;;;;;;;;;;;;;;;;;5051369;28;1358;-71
2022/06/25 16:00:04;;;;;;;;;;;;;;;;;;5017176;28;1205;-71
2022/06/25 16:02:31;;;;;;;;;;;;;;;;;;5050577;28;1428;-72
2022/06/25 16:04:57;;;;;;;;;;;;;;;;;;5052871;28;1969;-72
2022/06/25 16:07:23;;;;;;;;;;;;;;;;;;5050695;28;1407;-73
2022/06/25 16:09:51;;;;;;;;;;;;;;;;;;5051721;28;1667;-72
2022/06/25 16:12:17;;;;;;;;;;;;;;;;;;5051680;28;1381;-73
2022/06/25 16:14:44;;;;;;;;;;;;;;;;;;5046780;28;1372;-72
2022/06/25 16:17:11;;;;;;;;;;;;;;;;;;4967448;28;1536;-72
2022/06/25 16:19:38;;;;;;;;;;;;;;;;;;4985424;28;1732;-70
2022/06/25 16:22:04;;;;;;;;;;;;;;;;;;4978289;28;1290;-71
2022/06/25 16:24:31;;;;;;;;;;;;;;;;;;4974165;28;1934;-71
2022/06/25 16:26:58;;;;;;;;;;;;;;;;;;4977948;28;1769;-72
2022/06/25 16:29:25;;;;;;;;;;;;;;;;;;4973726;28;1648;-71
2022/06/25 16:31:52;;;;;;;;;;;;;;;;;;5002019;28;1353;-71
2022/06/25 16:34:18;;;;;;;;;;;;;;;;;;4998517;28;1405;-71
2022/06/25 16:36:45;;;;;;;;;;;;;;;;;;4973916;28;937;-71
2022/06/25 16:39:11;;;;;;;;;;;;;;;;;;4971849;28;1268;-72
2022/06/25 16:41:38;;;;;;;;;;;;;;;;;;4974825;28;1726;-70
2022/06/25 16:44:06;;;;;;;;;;;;;;;;;;4977737;28;1953;-71
2022/06/25 16:46:33;;;;;;;;;;;;;;;;;;4977202;28;1035;-71
2022/06/25 16:49:01;;;;;;;;;;;;;;;;;;4968488;28;1566;-71
2022/06/25 16:51:27;;;;;;;;;;;;;;;;;;4959512;28;1361;-70
2022/06/25 16:53:56;;;;;;;;;;;;;;;;;;4979479;28;1044;-71
2022/06/25 16:56:23;;;;;;;;;;;;;;;;;;4973175;28;1386;-72
2022/06/25 16:58:50;;;;;;;;;;;;;;;;;;4971537;28;1105;-73
2022/06/25 17:01:18;;;;;;;;;;;;;;;;;;4954971;28;1397;-71
2022/06/25 17:03:45;;;;;;;;;;;;;;;;;;4977971;28;2027;-71
2022/06/25 17:06:12;;;;;;;;;;;;;;;;;;4952893;28;1426;-70
2022/06/25 17:08:39;;;;;;;;;;;;;;;;;;4974621;28;1572;-71
2022/06/25 17:11:05;;;;;;;;;;;;;;;;;;4972959;28;1392;-70
2022/06/25 17:13:32;;;;;;;;;;;;;;;;;;4969825;28;1325;-71
2022/06/25 17:15:59;;;;;;;;;;;;;;;;;;4974964;28;1339;-71
2022/06/25 17:18:28;;;;;;;;;;;;;;;;;;4975636;28;1231;-71
2022/06/25 17:20:55;;;;;;;;;;;;;;;;;;4966323;28;1535;-71
2022/06/25 17:23:21;;;;;;;;;;;;;;;;;;4962406;28;1150;-71
2022/06/25 17:25:48;;;;;;;;;;;;;;;;;;4972825;28;1946;-70
2022/06/25 17:28:14;;;;;;;;;;;;;;;;;;4971245;28;1548;-71
2022/06/25 17:30:41;;;;;;;;;;;;;;;;;;4975630;28;905;-71